Time;durP1;ratioP1;P1;durP2;ratioP2;P2;SDS_P1;SDS_P2;PMS_P1;PMS_P2;Temp;Humidity;BMP_temperature;BMP_pressure;BME280_temperature;BME280_humidity;BME280_pressure;Samples;Min_cycle;Max_cycle;Signal;HPM_P1;HPM_P2
2023/03/20 00:00:07;;;;;;;;;;;;;;;7.73;100.00;96503.63;5088153;28;19924;-81
2023/03/20 00:02:34;;;;;;;;;;;;;;;7.74;100.00;96499.88;5092857;28;19931;-81
2023/03/20 00:05:01;;;;;;;;;;;;;;;7.70;100.00;96509.41;5096061;28;19931;-81
2023/03/20 00:07:33;;;;;;;;;;;;;;;7.67;100.00;96501.75;5081542;28;19959;-80
2023/03/20 00:09:59;;;;;;;;;;;;;;;7.62;100.00;96506.09;5075953;28;19933;-81
2023/03/20 00:12:26;;;;;;;;;;;;;;;7.58;100.00;96511.88;5088434;28;20028;-81
2023/03/20 00:14:53;;;;;;;;;;;;;;;7.54;100.00;96515.19;5080865;28;19932;-81
2023/03/20 00:17:21;;;;;;;;;;;;;;;7.48;100.00;96511.47;5099114;28;19928;-80
2023/03/20 00:19:48;;;;;;;;;;;;;;;7.46;100.00;96513.53;5083594;28;19963;-81
2023/03/20 00:22:14;;;;;;;;;;;;;;;7.46;100.00;96512.72;5088217;28;19931;-81
2023/03/20 00:24:42;;;;;;;;;;;;;;;7.45;100.00;96516.44;5093043;28;19924;-81
2023/03/20 00:27:11;;;;;;;;;;;;;;;7.47;100.00;96520.56;5075396;28;19946;-81
2023/03/20 00:29:40;;;;;;;;;;;;;;;7.51;100.00;96527.16;5072818;28;19990;-81
2023/03/20 00:32:11;;;;;;;;;;;;;;;7.56;100.00;96530.09;5089709;28;19928;-81
2023/03/20 00:34:38;;;;;;;;;;;;;;;7.60;100.00;96531.31;5076855;28;19932;-81
2023/03/20 00:37:05;;;;;;;;;;;;;;;7.65;100.00;96541.44;5081356;28;19924;-81
2023/03/20 00:39:34;;;;;;;;;;;;;;;7.62;100.00;96541.03;5088941;28;19959;-81
2023/03/20 00:42:05;;;;;;;;;;;;;;;7.54;100.00;96542.88;5087062;28;19925;-81
2023/03/20 00:44:35;;;;;;;;;;;;;;;7.52;100.00;96549.50;5074947;28;19924;-81
2023/03/20 00:47:04;;;;;;;;;;;;;;;7.51;100.00;96545.97;5101935;28;19949;-81
2023/03/20 00:49:32;;;;;;;;;;;;;;;7.55;100.00;96543.72;5093083;28;19924;-81
2023/03/20 00:52:00;;;;;;;;;;;;;;;7.59;100.00;96553.84;5084538;28;19932;-81
2023/03/20 00:54:26;;;;;;;;;;;;;;;7.63;100.00;96546.19;5074268;28;19924;-81
2023/03/20 00:56:55;;;;;;;;;;;;;;;7.62;100.00;96551.78;5072589;28;19924;-81
2023/03/20 00:59:26;;;;;;;;;;;;;;;7.45;100.00;96541.44;5077766;28;19932;-80
2023/03/20 01:01:53;;;;;;;;;;;;;;;7.38;100.00;96537.09;5075705;28;19931;-81
2023/03/20 01:04:20;;;;;;;;;;;;;;;7.34;100.00;96547.41;5089153;28;19936;-81
2023/03/20 01:06:47;;;;;;;;;;;;;;;7.35;100.00;96532.13;5071858;28;19971;-81
2023/03/20 01:09:14;;;;;;;;;;;;;;;7.38;100.00;96537.94;5095123;28;19930;-81
2023/03/20 01:11:41;;;;;;;;;;;;;;;7.37;100.00;96530.91;5091608;28;20013;-81
2023/03/20 01:14:19;;;;;;;;;;;;;;;7.35;100.00;96537.50;5090580;28;19930;-81
2023/03/20 01:16:47;;;;;;;;;;;;;;;7.34;100.00;96531.28;5099361;28;19924;-81
2023/03/20 01:19:15;;;;;;;;;;;;;;;7.39;100.00;96528.00;5093849;28;19932;-81
2023/03/20 01:21:42;;;;;;;;;;;;;;;7.43;100.00;96524.69;5084743;28;19931;-81
2023/03/20 01:24:09;;;;;;;;;;;;;;;7.50;100.00;96530.06;5089380;28;19931;-80
2023/03/20 01:26:37;;;;;;;;;;;;;;;7.43;100.00;96527.38;5086636;28;19930;-81
2023/03/20 01:29:04;;;;;;;;;;;;;;;7.36;100.00;96521.19;5087897;28;19932;-81
2023/03/20 01:31:37;;;;;;;;;;;;;;;7.16;100.00;96509.59;5093217;28;19970;-81
2023/03/20 01:34:05;;;;;;;;;;;;;;;7.09;100.00;96511.44;5084978;28;19924;-81
2023/03/20 01:36:34;;;;;;;;;;;;;;;7.02;100.00;96507.91;5075940;28;19924;-81
2023/03/20 01:39:01;;;;;;;;;;;;;;;6.99;100.00;96508.31;5096053;28;19924;-81
2023/03/20 01:41:29;;;;;;;;;;;;;;;6.97;100.00;96507.72;5083300;28;20017;-81
2023/03/20 01:43:57;;;;;;;;;;;;;;;6.97;100.00;96499.66;5085993;28;20005;-81
2023/03/20 01:46:27;;;;;;;;;;;;;;;6.94;100.00;96494.69;5083058;28;19948;-81
2023/03/20 01:49:04;;;;;;;;;;;;;;;6.92;100.00;96502.13;5090283;28;19925;-81
2023/03/20 01:51:34;;;;;;;;;;;;;;;6.88;100.00;96503.56;5089082;28;19970;-81
2023/03/20 01:54:12;;;;;;;;;;;;;;;6.94;100.00;96492.84;5087671;28;19931;-80
2023/03/20 01:56:51;;;;;;;;;;;;;;;7.03;100.00;96496.16;5077164;28;19971;-81
2023/03/20 01:59:25;;;;;;;;;;;;;;;7.09;100.00;96501.53;5097364;28;19937;-81
2023/03/20 02:01:52;;;;;;;;;;;;;;;7.10;100.00;96497.81;5088756;28;19935;-81
2023/03/20 02:04:29;;;;;;;;;;;;;;;7.11;100.00;96499.47;5100895;28;19924;-81
2023/03/20 02:07:05;;;;;;;;;;;;;;;7.15;100.00;96497.19;5096413;28;19935;-81
2023/03/20 02:09:53;;;;;;;;;;;;;;;7.19;100.00;96499.28;5093706;28;19963;-81
2023/03/20 02:12:27;;;;;;;;;;;;;;;7.22;100.00;96501.56;5092003;28;19924;-81
2023/03/20 02:15:00;;;;;;;;;;;;;;;7.24;100.00;96504.00;5087143;28;20023;-81
2023/03/20 02:17:50;;;;;;;;;;;;;;;7.29;100.00;96500.72;5080419;28;19925;-81
2023/03/20 02:20:25;;;;;;;;;;;;;;;7.34;100.00;96503.59;5092878;28;19928;-81
2023/03/20 02:23:21;;;;;;;;;;;;;;;7.38;100.00;96511.06;5083773;28;19925;-81
2023/03/20 02:26:06;;;;;;;;;;;;;;;7.26;100.00;96507.31;5063010;28;19970;-81
2023/03/20 02:28:51;;;;;;;;;;;;;;;7.18;100.00;96499.47;5090236;28;19975;-81
2023/03/20 02:31:36;;;;;;;;;;;;;;;7.11;100.00;96506.69;5112146;27;20014;-81
2023/03/20 02:34:18;;;;;;;;;;;;;;;7.15;100.00;96511.44;5090857;28;19925;-81
2023/03/20 02:36:55;;;;;;;;;;;;;;;7.20;100.00;96511.66;5082775;28;19931;-81
2023/03/20 02:39:35;;;;;;;;;;;;;;;7.29;100.00;96514.16;5081550;28;19939;-81
2023/03/20 02:42:07;;;;;;;;;;;;;;;7.35;100.00;96511.47;5079532;28;19959;-81
2023/03/20 02:44:41;;;;;;;;;;;;;;;7.42;100.00;96516.84;5083526;28;19946;-81
2023/03/20 02:47:10;;;;;;;;;;;;;;;7.48;100.00;96518.72;5080685;28;19963;-81
2023/03/20 02:49:50;;;;;;;;;;;;;;;7.50;100.00;96520.13;5084519;28;19974;-81
2023/03/20 02:52:20;;;;;;;;;;;;;;;7.46;100.00;96518.09;5090564;28;19925;-81
2023/03/20 02:54:54;;;;;;;;;;;;;;;7.44;100.00;96520.16;5082954;28;19928;-81
2023/03/20 02:57:26;;;;;;;;;;;;;;;7.47;100.00;96520.56;5082308;28;19981;-81
2023/03/20 02:59:55;;;;;;;;;;;;;;;7.48;100.00;96514.16;5077115;28;20030;-81
2023/03/20 03:02:27;;;;;;;;;;;;;;;7.47;100.00;96520.56;5074834;28;19930;-81
2023/03/20 03:04:56;;;;;;;;;;;;;;;7.50;100.00;96525.50;5093123;28;19932;-81
2023/03/20 03:07:28;;;;;;;;;;;;;;;7.54;100.00;96525.94;5082395;28;19947;-81
2023/03/20 03:10:00;;;;;;;;;;;;;;;7.58;100.00;96527.16;5088668;28;20005;-81
2023/03/20 03:12:29;;;;;;;;;;;;;;;7.54;100.00;96529.47;5085763;28;19932;-81
2023/03/20 03:15:01;;;;;;;;;;;;;;;7.54;100.00;96529.47;5090902;28;19931;-81
2023/03/20 03:17:33;;;;;;;;;;;;;;;7.55;100.00;96528.44;5091494;28;19924;-81
2023/03/20 03:20:04;;;;;;;;;;;;;;;7.58;100.00;96537.91;5091219;28;20014;-81
2023/03/20 03:22:33;;;;;;;;;;;;;;;7.55;100.00;96541.88;5098527;28;19951;-81
2023/03/20 03:25:01;;;;;;;;;;;;;;;7.57;100.00;96547.84;5087102;28;19924;-81
2023/03/20 03:27:35;;;;;;;;;;;;;;;7.61;100.00;96540.19;5074454;28;19932;-81
2023/03/20 03:30:04;;;;;;;;;;;;;;;7.63;100.00;96543.50;5077198;28;19973;-81
2023/03/20 03:32:33;;;;;;;;;;;;;;;7.60;100.00;96544.75;5082763;28;20156;-81
2023/03/20 03:35:00;;;;;;;;;;;;;;;7.63;100.00;96543.50;5094922;28;19924;-81
2023/03/20 03:37:33;;;;;;;;;;;;;;;7.59;100.00;96553.84;5088818;28;19924;-81
2023/03/20 03:40:05;;;;;;;;;;;;;;;7.58;100.00;96554.88;5087107;28;19974;-81
2023/03/20 03:42:35;;;;;;;;;;;;;;;7.62;100.00;96557.16;5081705;28;20039;-81
2023/03/20 03:45:05;;;;;;;;;;;;;;;7.63;100.00;96558.81;5074100;28;20023;-81
2023/03/20 03:47:34;;;;;;;;;;;;;;;7.61;100.00;96564.38;5088452;28;19928;-81
2023/03/20 03:50:03;;;;;;;;;;;;;;;7.59;100.00;96561.06;5099193;28;19924;-81
2023/03/20 03:52:31;;;;;;;;;;;;;;;7.56;100.00;96561.50;5083431;28;19970;-81
2023/03/20 03:55:00;;;;;;;;;;;;;;;7.60;100.00;96563.56;5087836;28;19931;-81
2023/03/20 03:57:34;;;;;;;;;;;;;;;7.64;100.00;96565.84;5079197;28;19924;-81
2023/03/20 04:00:08;;;;;;;;;;;;;;;7.63;100.00;96566.88;5075892;28;19925;-81
2023/03/20 04:02:45;;;;;;;;;;;;;;;7.60;100.00;96568.94;5083742;28;20038;-81
2023/03/20 04:05:13;;;;;;;;;;;;;;;7.56;100.00;96570.38;5092817;28;19936;-81
2023/03/20 04:07:44;;;;;;;;;;;;;;;7.56;100.00;96570.38;5088770;28;19925;-81
2023/03/20 04:10:11;;;;;;;;;;;;;;;7.59;100.00;96572.66;5090554;28;19923;-81
2023/03/20 04:12:42;;;;;;;;;;;;;;;7.60;100.00;96568.09;5079889;28;19928;-81
2023/03/20 04:15:10;;;;;;;;;;;;;;;7.61;100.00;96575.13;5093267;28;20022;-81
2023/03/20 04:17:37;;;;;;;;;;;;;;;7.55;100.00;96576.78;5082815;28;19925;-81
2023/03/20 04:20:05;;;;;;;;;;;;;;;7.53;100.00;96578.84;5088320;28;20015;-81
2023/03/20 04:22:33;;;;;;;;;;;;;;;7.57;100.00;96585.44;5085448;28;19932;-83
2023/03/20 04:25:06;;;;;;;;;;;;;;;7.66;100.00;96591.47;5098424;28;19978;-83
2023/03/20 04:27:33;;;;;;;;;;;;;;;7.65;100.00;96589.84;5105301;28;19924;-83
2023/03/20 04:30:04;;;;;;;;;;;;;;;7.65;100.00;96595.22;5091469;28;19959;-83
2023/03/20 04:33:06;;;;;;;;;;;;;;;7.62;100.00;96590.22;5072840;28;19931;-81
2023/03/20 04:35:57;;;;;;;;;;;;;;;7.57;100.00;96590.84;5074557;28;19935;-81
2023/03/20 04:38:24;;;;;;;;;;;;;;;7.55;100.00;96592.09;5077375;28;19924;-81
2023/03/20 04:40:55;;;;;;;;;;;;;;;7.50;100.00;96592.69;5104508;28;19928;-81
2023/03/20 04:43:25;;;;;;;;;;;;;;;7.49;100.00;96593.72;5092375;28;20000;-81
2023/03/20 04:45:54;;;;;;;;;;;;;;;7.50;100.00;96592.69;5080079;28;19986;-82
2023/03/20 04:48:21;;;;;;;;;;;;;;;7.49;100.00;96588.34;5079373;28;19993;-81
2023/03/20 04:50:49;;;;;;;;;;;;;;;7.49;100.00;96591.03;5080656;28;19929;-81
2023/03/20 04:53:18;;;;;;;;;;;;;;;7.51;100.00;96599.72;5081812;28;19928;-81
2023/03/20 04:55:49;;;;;;;;;;;;;;;7.50;100.00;96594.53;5090285;28;20019;-81
2023/03/20 04:58:17;;;;;;;;;;;;;;;7.47;100.00;96597.66;5088972;28;19925;-81
2023/03/20 05:00:44;;;;;;;;;;;;;;;7.45;100.00;96597.03;5075000;28;20782;-81
2023/03/20 05:03:13;;;;;;;;;;;;;;;7.44;100.00;96592.69;5089636;28;20031;-81
2023/03/20 05:05:40;;;;;;;;;;;;;;;7.41;100.00;96593.91;5092849;28;20023;-81
2023/03/20 05:08:09;;;;;;;;;;;;;;;7.41;100.00;96591.22;5085749;28;19925;-81
2023/03/20 05:10:38;;;;;;;;;;;;;;;7.38;100.00;96593.50;5092210;28;20023;-81
2023/03/20 05:13:13;;;;;;;;;;;;;;;7.39;100.00;96598.69;5094120;28;19931;-82
2023/03/20 05:16:03;;;;;;;;;;;;;;;7.37;100.00;96605.28;5098571;28;20259;-82
2023/03/20 05:18:52;;;;;;;;;;;;;;;7.33;100.00;96606.72;5092758;28;19924;-82
2023/03/20 05:21:43;;;;;;;;;;;;;;;7.33;100.00;96610.22;5094068;28;20072;-82
2023/03/20 05:24:12;;;;;;;;;;;;;;;7.33;100.00;96610.22;5090832;28;19924;-83
2023/03/20 05:26:48;;;;;;;;;;;;;;;7.31;100.00;96617.69;5087516;28;19928;-82
2023/03/20 05:29:18;;;;;;;;;;;;;;;7.26;100.00;96614.75;5098797;28;19932;-82
2023/03/20 05:32:11;;;;;;;;;;;;;;;7.25;100.00;96618.47;5105952;28;19972;-83
2023/03/20 05:35:08;;;;;;;;;;;;;;;7.23;100.00;96615.16;5087394;28;19963;-82
2023/03/20 05:37:56;;;;;;;;;;;;;;;7.18;100.00;96612.25;5074071;28;19955;-83
2023/03/20 05:40:43;;;;;;;;;;;;;;;7.16;100.00;96615.13;5082317;28;19939;-83
2023/03/20 05:43:12;;;;;;;;;;;;;;;7.23;100.00;96615.16;5079252;28;19924;-83
2023/03/20 05:45:54;;;;;;;;;;;;;;;7.27;100.00;96616.41;5091082;28;19947;-83
2023/03/20 05:48:40;;;;;;;;;;;;;;;7.24;100.00;96611.44;5082823;28;19939;-82
2023/03/20 05:51:30;;;;;;;;;;;;;;;7.20;100.00;96612.88;5088980;28;19928;-82
2023/03/20 05:54:12;;;;;;;;;;;;;;;7.22;100.00;96618.91;5105043;28;19999;-83
2023/03/20 05:57:02;;;;;;;;;;;;;;;7.26;100.00;96608.56;5081000;28;19924;-82
2023/03/20 05:59:49;;;;;;;;;;;;;;;7.33;100.00;96609.41;5084016;28;19982;-83
2023/03/20 06:02:45;;;;;;;;;;;;;;;7.35;100.00;96610.84;5082387;28;19966;-82
2023/03/20 06:05:30;;;;;;;;;;;;;;;7.35;100.00;96608.16;5093146;28;19931;-83
2023/03/20 06:07:58;;;;;;;;;;;;;;;7.36;100.00;96609.81;5095449;28;19924;-82
2023/03/20 06:10:26;;;;;;;;;;;;;;;7.35;100.00;96607.34;5082727;28;19932;-82
2023/03/20 06:12:53;;;;;;;;;;;;;;;7.34;100.00;96616.44;5082958;28;19939;-82
2023/03/20 06:15:28;;;;;;;;;;;;;;;7.26;100.00;96612.06;5098013;28;19931;-82
2023/03/20 06:18:04;;;;;;;;;;;;;;;7.23;100.00;96621.34;5097190;28;19947;-81
2023/03/20 06:20:32;;;;;;;;;;;;;;;7.28;100.00;96622.63;5085164;28;19925;-83
2023/03/20 06:23:03;;;;;;;;;;;;;;;7.31;100.00;96632.97;5076166;28;19924;-82
2023/03/20 06:25:32;;;;;;;;;;;;;;;7.34;100.00;96638.75;5080066;28;19947;-82
2023/03/20 06:27:59;;;;;;;;;;;;;;;7.34;100.00;96635.22;5088378;28;19935;-82
2023/03/20 06:30:25;;;;;;;;;;;;;;;7.30;100.00;96640.19;5093931;28;20027;-82
2023/03/20 06:32:54;;;;;;;;;;;;;;;7.29;100.00;96646.59;5079703;28;19933;-85
2023/03/20 06:35:23;;;;;;;;;;;;;;;7.35;100.00;96644.94;5093716;28;19931;-84
2023/03/20 06:37:51;;;;;;;;;;;;;;;7.32;100.00;96651.53;5089594;28;19975;-84
2023/03/20 06:40:24;;;;;;;;;;;;;;;7.41;100.00;96644.97;5085648;28;19978;-85
2023/03/20 06:42:51;;;;;;;;;;;;;;;7.48;100.00;96648.50;5078197;28;19932;-84
2023/03/20 06:45:18;;;;;;;;;;;;;;;7.52;100.00;96647.06;5092840;28;19928;-85
2023/03/20 06:47:55;;;;;;;;;;;;;;;7.47;100.00;96641.47;5082560;28;19924;-85
2023/03/20 06:50:22;;;;;;;;;;;;;;;7.45;100.00;96640.03;5079713;28;19925;-84
2023/03/20 06:52:49;;;;;;;;;;;;;;;7.43;100.00;96647.44;5079129;28;19928;-85
2023/03/20 06:55:54;;;;;;;;;;;;;;;7.45;100.00;96654.28;5062401;28;19928;-84
2023/03/20 06:58:22;;;;;;;;;;;;;;;7.55;100.00;96654.72;5081275;28;19932;-85
2023/03/20 07:00:53;;;;;;;;;;;;;;;7.64;100.00;96654.53;5092110;28;19924;-84
2023/03/20 07:03:20;;;;;;;;;;;;;;;7.54;100.00;96650.38;5091923;28;19957;-85
2023/03/20 07:05:49;;;;;;;;;;;;;;;7.50;100.00;96648.28;5088829;28;19978;-84
2023/03/20 07:08:17;;;;;;;;;;;;;;;7.56;100.00;96642.94;5091158;28;19993;-85
2023/03/20 07:10:43;;;;;;;;;;;;;;;7.53;100.00;96640.66;5083574;28;20462;-85
2023/03/20 07:13:14;;;;;;;;;;;;;;;7.56;100.00;96634.88;5086259;28;19924;-85
2023/03/20 07:15:46;;;;;;;;;;;;;;;7.55;100.00;96635.91;5080636;28;19924;-84
2023/03/20 07:18:21;;;;;;;;;;;;;;;7.53;100.00;96643.34;5093194;28;19933;-85
2023/03/20 07:20:51;;;;;;;;;;;;;;;7.59;100.00;96636.31;5089227;28;19975;-84
2023/03/20 07:23:21;;;;;;;;;;;;;;;7.69;100.00;96642.13;5081660;28;19928;-84
2023/03/20 07:25:48;;;;;;;;;;;;;;;7.79;100.00;96644.41;5078860;28;19963;-85
2023/03/20 07:28:19;;;;;;;;;;;;;;;7.90;100.00;96649.19;5078978;28;19929;-85
2023/03/20 07:30:55;;;;;;;;;;;;;;;7.93;100.00;96654.13;5081682;28;19931;-84
2023/03/20 07:33:23;;;;;;;;;;;;;;;7.88;100.00;96657.44;5091217;28;19924;-84
2023/03/20 07:35:55;;;;;;;;;;;;;;;7.96;100.00;96654.56;5088812;28;20458;-84
2023/03/20 07:38:24;;;;;;;;;;;;;;;8.08;100.00;96652.06;5088332;28;19925;-85
2023/03/20 07:41:04;;;;;;;;;;;;;;;8.10;100.00;96658.06;5075398;28;19924;-84
2023/03/20 07:43:33;;;;;;;;;;;;;;;8.14;100.00;96664.69;5079219;28;19924;-84
2023/03/20 07:46:20;;;;;;;;;;;;;;;8.23;100.00;96671.53;5085676;28;19930;-84
2023/03/20 07:48:49;;;;;;;;;;;;;;;8.27;100.00;96674.63;5084972;28;19931;-83
2023/03/20 07:51:16;;;;;;;;;;;;;;;8.38;100.00;96667.81;5089234;28;19924;-84
2023/03/20 07:53:43;;;;;;;;;;;;;;;8.47;100.00;96674.63;5091986;28;20184;-84
2023/03/20 07:56:20;;;;;;;;;;;;;;;8.50;100.00;96676.91;5086896;28;19928;-89
2023/03/20 07:58:47;;;;;;;;;;;;;;;8.63;100.00;96674.19;5081817;28;19974;-90
2023/03/20 08:01:14;;;;;;;;;;;;;;;8.69;100.00;96670.66;5076036;28;19928;-90
2023/03/20 08:03:44;;;;;;;;;;;;;;;8.77;100.00;96666.91;5082929;28;19928;-90
2023/03/20 08:06:12;;;;;;;;;;;;;;;8.82;100.00;96659.03;5097250;28;19924;-89
2023/03/20 08:08:39;;;;;;;;;;;;;;;8.83;100.00;96664.22;5076339;28;19939;-85
2023/03/20 08:11:06;;;;;;;;;;;;;;;8.78;100.00;96664.00;5090112;28;19932;-86
2023/03/20 08:13:34;;;;;;;;;;;;;;;8.83;100.00;96653.44;5074187;28;19923;-86
2023/03/20 08:16:09;;;;;;;;;;;;;;;8.88;100.00;96648.25;5075478;28;19924;-87
2023/03/20 08:18:36;;;;;;;;;;;;;;;8.99;100.00;96647.59;5091551;28;20019;-86
2023/03/20 08:21:04;;;;;;;;;;;;;;;9.03;100.00;96646.09;5095569;28;19924;-87
2023/03/20 08:23:32;;;;;;;;;;;;;;;9.08;100.00;96640.91;5093408;28;19931;-87
2023/03/20 08:26:01;;;;;;;;;;;;;;;9.19;100.00;96638.56;5081161;28;19931;-86
2023/03/20 08:28:30;;;;;;;;;;;;;;;9.28;100.00;96638.13;5089536;28;19924;-86
2023/03/20 08:30:56;;;;;;;;;;;;;;;9.31;100.00;96634.19;5094734;28;19931;-86
2023/03/20 08:33:31;;;;;;;;;;;;;;;9.40;100.00;96630.19;5095261;28;19988;-86
2023/03/20 08:35:58;;;;;;;;;;;;;;;9.63;100.00;96619.66;5080363;28;19932;-86
2023/03/20 08:38:26;;;;;;;;;;;;;;;9.78;100.00;96612.09;5094528;28;19932;-86
2023/03/20 08:40:53;;;;;;;;;;;;;;;10.02;100.00;96601.56;5089633;28;19946;-86
2023/03/20 08:43:23;;;;;;;;;;;;;;;10.12;100.00;96597.28;5095873;28;19939;-86
2023/03/20 08:45:51;;;;;;;;;;;;;;;10.36;100.00;96594.84;5100967;28;19928;-86
2023/03/20 08:48:17;;;;;;;;;;;;;;;10.54;100.00;96590.28;5081859;28;19928;-85
2023/03/20 08:50:45;;;;;;;;;;;;;;;10.49;100.00;96587.41;5086297;28;19928;-86
2023/03/20 08:53:25;;;;;;;;;;;;;;;10.52;100.00;96586.97;5100503;28;19925;-86
2023/03/20 08:55:56;;;;;;;;;;;;;;;10.62;100.00;96591.88;5075017;28;19978;-83
2023/03/20 08:58:23;;;;;;;;;;;;;;;10.68;100.00;96592.84;5086809;28;19985;-84
2023/03/20 09:00:53;;;;;;;;;;;;;;;10.81;100.00;96590.78;5094026;28;19931;-84
2023/03/20 09:03:21;;;;;;;;;;;;;;;10.98;100.00;96607.22;5078146;28;19924;-83
2023/03/20 09:05:48;;;;;;;;;;;;;;;11.09;100.00;96605.66;5086024;28;19928;-84
2023/03/20 09:08:15;;;;;;;;;;;;;;;11.16;100.00;96612.59;5081921;28;19924;-84
2023/03/20 09:10:42;;;;;;;;;;;;;;;11.33;100.00;96600.13;5092063;28;19924;-84
2023/03/20 09:13:10;;;;;;;;;;;;;;;11.56;100.00;96596.69;5076437;28;19975;-84
2023/03/20 09:15:37;;;;;;;;;;;;;;;11.85;100.00;96596.91;5080862;28;19924;-84
2023/03/20 09:18:08;;;;;;;;;;;;;;;12.32;100.00;96603.22;5095292;28;19928;-84
2023/03/20 09:20:35;;;;;;;;;;;;;;;12.74;100.00;96610.16;5084776;28;19924;-84
2023/03/20 09:23:02;;;;;;;;;;;;;;;12.95;100.00;96611.41;5086668;28;19931;-84
2023/03/20 09:25:29;;;;;;;;;;;;;;;13.01;100.00;96617.78;5081219;28;19978;-83
2023/03/20 09:27:55;;;;;;;;;;;;;;;13.03;100.00;96616.44;5091695;28;19925;-83
2023/03/20 09:30:25;;;;;;;;;;;;;;;13.11;100.00;96621.50;5088379;28;19977;-84
2023/03/20 09:32:52;;;;;;;;;;;;;;;13.11;100.00;96618.78;5084372;28;19924;-84
2023/03/20 09:35:19;;;;;;;;;;;;;;;13.09;100.00;96615.50;5078405;28;19955;-84
2023/03/20 09:37:49;;;;;;;;;;;;;;;12.97;100.00;96622.00;5083564;28;19928;-84
2023/03/20 09:40:25;;;;;;;;;;;;;;;12.99;100.00;96620.72;5084944;28;19928;-84
2023/03/20 09:42:54;;;;;;;;;;;;;;;13.00;100.00;96621.53;5090507;28;19931;-84
2023/03/20 09:45:27;;;;;;;;;;;;;;;13.03;100.00;96615.63;5079562;28;19950;-84
2023/03/20 09:48:02;;;;;;;;;;;;;;;13.04;100.00;96619.97;5082118;28;19963;-83
2023/03/20 09:50:36;;;;;;;;;;;;;;;13.02;100.00;96619.38;5093886;28;20147;-84
2023/03/20 09:53:05;;;;;;;;;;;;;;;12.95;100.00;96619.53;5095919;28;19927;-84
2023/03/20 09:55:34;;;;;;;;;;;;;;;12.97;100.00;96627.44;5082934;28;19975;-83
2023/03/20 09:58:04;;;;;;;;;;;;;;;13.08;100.00;96618.47;5091285;28;19924;-83
2023/03/20 10:00:34;;;;;;;;;;;;;;;13.11;100.00;96615.25;5091109;28;19924;-83
2023/03/20 10:03:03;;;;;;;;;;;;;;;13.13;100.00;96615.84;5085907;28;20013;-83
2023/03/20 10:05:36;;;;;;;;;;;;;;;13.32;100.00;96620.06;5083566;28;19924;-87
2023/03/20 10:08:05;;;;;;;;;;;;;;;13.47;100.00;96606.81;5072661;28;19931;-87
2023/03/20 10:10:38;;;;;;;;;;;;;;;13.48;100.00;96613.06;5086062;28;19946;-87
2023/03/20 10:13:10;;;;;;;;;;;;;;;13.46;100.00;96604.31;5084463;28;19924;-88
2023/03/20 10:15:42;;;;;;;;;;;;;;;13.50;99.17;96606.31;5096380;28;19928;-88
2023/03/20 10:18:16;;;;;;;;;;;;;;;13.56;98.40;96605.34;5078377;28;19986;-87
2023/03/20 10:20:47;;;;;;;;;;;;;;;13.51;99.06;96599.84;5082283;28;19931;-87
2023/03/20 10:23:18;;;;;;;;;;;;;;;13.60;98.21;96603.81;5083934;28;19963;-87
2023/03/20 10:25:47;;;;;;;;;;;;;;;13.77;97.08;96594.88;5091294;28;19935;-88
2023/03/20 10:28:17;;;;;;;;;;;;;;;13.74;96.04;96595.34;5076713;28;19932;-86
2023/03/20 10:31:01;;;;;;;;;;;;;;;13.75;96.75;96586.16;5100980;28;20023;-88
2023/03/20 10:33:34;;;;;;;;;;;;;;;13.76;95.39;96594.06;5101730;27;19928;-87
2023/03/20 10:36:11;;;;;;;;;;;;;;;13.85;93.88;96591.75;5090998;28;19935;-86
2023/03/20 10:38:42;;;;;;;;;;;;;;;13.83;93.39;96592.00;5102783;27;20012;-86
2023/03/20 10:41:11;;;;;;;;;;;;;;;13.81;96.05;96588.69;5086949;28;19932;-86
2023/03/20 10:43:40;;;;;;;;;;;;;;;13.98;94.16;96583.28;5091529;28;19928;-85
2023/03/20 10:46:12;;;;;;;;;;;;;;;14.14;95.02;96589.78;5083597;28;19935;-86
2023/03/20 10:48:43;;;;;;;;;;;;;;;14.14;92.50;96584.34;5088608;28;19956;-85
2023/03/20 10:51:13;;;;;;;;;;;;;;;14.12;92.59;96581.88;5079469;28;19946;-85
2023/03/20 10:53:45;;;;;;;;;;;;;;;14.13;90.62;96574.56;5084304;28;19924;-85
2023/03/20 10:56:13;;;;;;;;;;;;;;;14.24;91.71;96573.66;5084757;28;20015;-85
2023/03/20 10:58:42;;;;;;;;;;;;;;;14.33;89.73;96567.56;5075906;28;19925;-85
2023/03/20 11:01:11;;;;;;;;;;;;;;;14.41;91.96;96558.22;5092231;28;19931;-84
2023/03/20 11:03:38;;;;;;;;;;;;;;;14.43;90.04;96560.69;5082540;28;19929;-84
2023/03/20 11:06:11;;;;;;;;;;;;;;;14.44;90.53;96556.91;5096885;28;19954;-84
2023/03/20 11:08:40;;;;;;;;;;;;;;;14.66;93.07;96555.03;5091577;28;19998;-84
2023/03/20 11:11:07;;;;;;;;;;;;;;;14.86;91.66;96558.03;5093319;28;19925;-84
2023/03/20 11:13:35;;;;;;;;;;;;;;;14.88;93.71;96558.59;5081906;28;19925;-85
2023/03/20 11:16:16;;;;;;;;;;;;;;;14.85;91.03;96559.09;5086359;28;19946;-85
2023/03/20 11:18:44;;;;;;;;;;;;;;;14.97;89.07;96562.50;5095015;28;19924;-84
2023/03/20 11:21:18;;;;;;;;;;;;;;;14.97;88.70;96567.94;5081733;28;19924;-84
2023/03/20 11:23:45;;;;;;;;;;;;;;;14.89;85.69;96573.00;5077269;28;19938;-81
2023/03/20 11:26:16;;;;;;;;;;;;;;;14.87;87.07;96562.41;5077387;28;19924;-81
2023/03/20 11:28:47;;;;;;;;;;;;;;;15.11;89.31;96558.34;5085270;28;19924;-81
2023/03/20 11:31:18;;;;;;;;;;;;;;;15.09;88.16;96557.78;5081904;28;20014;-81
2023/03/20 11:33:46;;;;;;;;;;;;;;;15.13;85.65;96539.88;5082303;28;19995;-81
2023/03/20 11:36:21;;;;;;;;;;;;;;;15.19;87.36;96548.91;5081238;28;19924;-81
2023/03/20 11:39:25;;;;;;;;;;;;;;;15.09;85.01;96546.06;5096055;28;20145;-86
2023/03/20 11:52:23;;;;;;;;;;;;;;;15.39;82.57;96541.00;4968950;28;20033;-86
2023/03/20 11:54:53;;;;;;;;;;;;;;;15.27;82.95;96544.91;4993710;28;20016;-84
2023/03/20 11:57:32;;;;;;;;;;;;;;;15.23;82.11;96543.78;5063803;28;19961;-84
2023/03/20 12:00:02;;;;;;;;;;;;;;;15.13;84.39;96556.19;5079159;28;19985;-84
2023/03/20 12:02:31;;;;;;;;;;;;;;;14.76;85.47;96556.00;5083761;28;19946;-83
2023/03/20 12:04:59;;;;;;;;;;;;;;;14.69;85.61;96555.34;5059549;28;19971;-84
2023/03/20 12:07:28;;;;;;;;;;;;;;;14.89;87.16;96548.53;5067303;28;19999;-83
2023/03/20 12:09:58;;;;;;;;;;;;;;;14.72;86.13;96543.13;5070856;28;19931;-83
2023/03/20 12:12:30;;;;;;;;;;;;;;;14.80;85.54;96541.91;5065114;28;19984;-83
2023/03/20 12:15:01;;;;;;;;;;;;;;;14.54;85.64;96544.28;5078529;28;19925;-84
2023/03/20 12:17:40;;;;;;;;;;;;;;;14.48;84.55;96547.16;5083855;28;19932;-83
2023/03/20 12:20:12;;;;;;;;;;;;;;;14.53;85.35;96533.66;5078941;28;19931;-83
2023/03/20 12:22:43;;;;;;;;;;;;;;;14.66;84.06;96536.00;5088386;28;19955;-83
2023/03/20 12:25:18;;;;;;;;;;;;;;;14.84;80.77;96543.84;5095065;28;21474;-83
2023/03/20 12:27:48;;;;;;;;;;;;;;;15.13;83.00;96542.59;5080810;28;19940;-83
2023/03/20 12:30:18;;;;;;;;;;;;;;;15.59;81.50;96543.13;5093251;28;19925;-82
2023/03/20 12:32:48;;;;;;;;;;;;;;;15.51;77.41;96541.66;5088152;28;19928;-82
2023/03/20 12:35:16;;;;;;;;;;;;;;;15.37;78.13;96545.84;5079786;28;19963;-81
2023/03/20 12:37:45;;;;;;;;;;;;;;;15.22;76.55;96536.72;5084393;28;19954;-82
2023/03/20 12:40:15;;;;;;;;;;;;;;;14.55;78.25;96531.50;5071164;28;19954;-82
2023/03/20 12:42:50;;;;;;;;;;;;;;;14.14;80.57;96535.47;5086701;28;20027;-82
2023/03/20 12:45:18;;;;;;;;;;;;;;;14.22;80.18;96549.47;5082677;28;19964;-81
2023/03/20 12:47:51;;;;;;;;;;;;;;;13.99;81.30;96555.06;5087848;28;19925;-82
2023/03/20 12:50:23;;;;;;;;;;;;;;;13.78;83.35;96553.09;5089055;28;19930;-82
2023/03/20 12:52:57;;;;;;;;;;;;;;;13.57;84.56;96547.31;5089849;28;19930;-82
2023/03/20 12:55:36;;;;;;;;;;;;;;;13.49;85.83;96545.00;5085988;28;20012;-83
2023/03/20 12:58:09;;;;;;;;;;;;;;;13.40;86.53;96541.03;5093496;28;19925;-80
2023/03/20 13:00:38;;;;;;;;;;;;;;;13.36;84.60;96548.00;5076687;28;19924;-80
2023/03/20 13:03:10;;;;;;;;;;;;;;;13.42;86.82;96541.63;5095151;28;19924;-80
2023/03/20 13:05:42;;;;;;;;;;;;;;;13.66;83.26;96542.31;5086249;28;19932;-81
2023/03/20 13:08:31;;;;;;;;;;;;;;;13.94;84.76;96538.72;5077409;28;20004;-80
2023/03/20 13:11:04;;;;;;;;;;;;;;;13.95;83.82;96545.78;5075436;28;19925;-80
2023/03/20 13:13:33;;;;;;;;;;;;;;;13.90;82.66;96542.97;5089267;28;19970;-81
2023/03/20 13:16:06;;;;;;;;;;;;;;;13.94;82.55;96541.44;5085724;28;19932;-80
2023/03/20 13:18:41;;;;;;;;;;;;;;;13.98;81.90;96548.00;5076363;28;20005;-80